sensor_id;sensor_type;location;lat;lon;timestamp;pressure;altitude;pressure_sealevel;temperature;humidity
66560;BME280;53413;49.878;8.142;2023-08-21T00:02:20;100473.19;;;20.19;100.00
66560;BME280;53413;49.878;8.142;2023-08-21T00:04:45;100472.44;;;20.17;100.00
66560;BME280;53413;49.878;8.142;2023-08-21T00:07:11;100472.69;;;20.14;100.00
66560;BME280;53413;49.878;8.142;2023-08-21T00:09:37;100475.56;;;20.11;100.00
66560;BME280;53413;49.878;8.142;2023-08-21T00:12:02;100478.22;;;20.11;100.00
66560;BME280;53413;49.878;8.142;2023-08-21T00:14:28;100473.09;;;20.08;100.00
66560;BME280;53413;49.878;8.142;2023-08-21T00:16:53;100477.69;;;20.06;100.00
66560;BME280;53413;49.878;8.142;2023-08-21T00:19:18;100475.22;;;20.03;100.00
66560;BME280;53413;49.878;8.142;2023-08-21T00:21:44;100483.22;;;20.03;100.00
66560;BME280;53413;49.878;8.142;2023-08-21T00:24:09;100484.91;;;20.04;100.00
66560;BME280;53413;49.878;8.142;2023-08-21T00:26:34;100478.13;;;19.99;100.00
66560;BME280;53413;49.878;8.142;2023-08-21T00:29:00;100472.25;;;19.94;100.00
66560;BME280;53413;49.878;8.142;2023-08-21T00:31:25;100477.06;;;19.89;100.00
66560;BME280;53413;49.878;8.142;2023-08-21T00:33:50;100475.53;;;19.85;100.00
66560;BME280;53413;49.878;8.142;2023-08-21T00:36:16;100476.31;;;19.87;100.00
66560;BME280;53413;49.878;8.142;2023-08-21T00:38:41;100477.28;;;19.86;100.00
66560;BME280;53413;49.878;8.142;2023-08-21T00:41:06;100473.84;;;19.84;100.00
66560;BME280;53413;49.878;8.142;2023-08-21T00:43:32;100471.38;;;19.81;100.00
66560;BME280;53413;49.878;8.142;2023-08-21T00:45:57;100483.31;;;19.75;100.00
66560;BME280;53413;49.878;8.142;2023-08-21T00:48:23;100479.19;;;19.71;100.00
66560;BME280;53413;49.878;8.142;2023-08-21T00:50:49;100483.13;;;19.65;100.00
66560;BME280;53413;49.878;8.142;2023-08-21T00:53:15;100478.84;;;19.63;100.00
66560;BME280;53413;49.878;8.142;2023-08-21T00:55:41;100481.72;;;19.60;100.00
66560;BME280;53413;49.878;8.142;2023-08-21T00:58:09;100474.78;;;19.57;100.00
66560;BME280;53413;49.878;8.142;2023-08-21T01:00:35;100481.19;;;19.54;100.00
66560;BME280;53413;49.878;8.142;2023-08-21T01:03:01;100474.38;;;19.50;100.00
66560;BME280;53413;49.878;8.142;2023-08-21T01:05:26;100479.78;;;19.49;100.00
66560;BME280;53413;49.878;8.142;2023-08-21T01:08:03;100472.03;;;19.46;100.00
66560;BME280;53413;49.878;8.142;2023-08-21T01:13:49;100474.25;;;19.39;100.00
66560;BME280;53413;49.878;8.142;2023-08-21T01:16:16;100475.31;;;19.36;100.00
66560;BME280;53413;49.878;8.142;2023-08-21T01:18:44;100474.56;;;19.34;100.00
66560;BME280;53413;49.878;8.142;2023-08-21T01:21:10;100483.47;;;19.33;100.00
66560;BME280;53413;49.878;8.142;2023-08-21T01:23:37;100482.66;;;19.33;100.00
66560;BME280;53413;49.878;8.142;2023-08-21T01:26:03;100481.56;;;19.35;100.00
66560;BME280;53413;49.878;8.142;2023-08-21T01:28:30;100489.56;;;19.35;100.00
66560;BME280;53413;49.878;8.142;2023-08-21T01:31:08;100492.97;;;19.37;100.00
66560;BME280;53413;49.878;8.142;2023-08-21T01:33:45;100509.66;;;19.40;100.00
66560;BME280;53413;49.878;8.142;2023-08-21T01:36:13;100517.50;;;19.41;100.00
66560;BME280;53413;49.878;8.142;2023-08-21T01:38:39;100517.31;;;19.44;100.00
66560;BME280;53413;49.878;8.142;2023-08-21T01:41:04;100503.91;;;19.46;100.00
66560;BME280;53413;49.878;8.142;2023-08-21T01:43:30;100507.31;;;19.48;100.00
66560;BME280;53413;49.878;8.142;2023-08-21T01:45:55;100511.50;;;19.52;100.00
66560;BME280;53413;49.878;8.142;2023-08-21T01:48:21;100508.59;;;19.55;100.00
66560;BME280;53413;49.878;8.142;2023-08-21T01:50:46;100512.97;;;19.56;100.00
66560;BME280;53413;49.878;8.142;2023-08-21T01:53:11;100506.69;;;19.57;100.00
66560;BME280;53413;49.878;8.142;2023-08-21T01:55:36;100505.84;;;19.57;100.00
66560;BME280;53413;49.878;8.142;2023-08-21T01:58:02;100507.56;;;19.58;100.00
66560;BME280;53413;49.878;8.142;2023-08-21T02:00:27;100504.91;;;19.58;100.00
66560;BME280;53413;49.878;8.142;2023-08-21T02:02:53;100503.84;;;19.60;100.00
66560;BME280;53413;49.878;8.142;2023-08-21T02:05:18;100503.72;;;19.62;100.00
66560;BME280;53413;49.878;8.142;2023-08-21T02:07:43;100510.53;;;19.66;100.00
66560;BME280;53413;49.878;8.142;2023-08-21T02:10:09;100510.97;;;19.73;100.00
66560;BME280;53413;49.878;8.142;2023-08-21T02:12:35;100506.91;;;19.80;100.00
66560;BME280;53413;49.878;8.142;2023-08-21T02:15:00;100503.66;;;19.89;100.00
66560;BME280;53413;49.878;8.142;2023-08-21T02:17:26;100505.06;;;19.95;100.00
66560;BME280;53413;49.878;8.142;2023-08-21T02:19:52;100494.94;;;20.00;100.00
66560;BME280;53413;49.878;8.142;2023-08-21T02:22:17;100492.88;;;20.04;100.00
66560;BME280;53413;49.878;8.142;2023-08-21T02:24:42;100497.03;;;20.08;100.00
66560;BME280;53413;49.878;8.142;2023-08-21T02:27:08;100496.09;;;20.09;100.00
66560;BME280;53413;49.878;8.142;2023-08-21T02:29:33;100488.94;;;20.09;100.00
66560;BME280;53413;49.878;8.142;2023-08-21T02:31:58;100492.69;;;20.07;100.00
66560;BME280;53413;49.878;8.142;2023-08-21T02:34:24;100495.47;;;20.05;100.00
66560;BME280;53413;49.878;8.142;2023-08-21T02:36:49;100501.00;;;20.02;100.00
66560;BME280;53413;49.878;8.142;2023-08-21T02:39:15;100498.53;;;19.99;100.00
66560;BME280;53413;49.878;8.142;2023-08-21T02:41:40;100499.63;;;19.96;100.00
66560;BME280;53413;49.878;8.142;2023-08-21T02:44:05;100499.06;;;19.91;100.00
66560;BME280;53413;49.878;8.142;2023-08-21T02:46:31;100499.47;;;19.85;100.00
66560;BME280;53413;49.878;8.142;2023-08-21T02:48:58;100507.78;;;19.80;100.00
66560;BME280;53413;49.878;8.142;2023-08-21T02:51:23;100505.66;;;19.73;100.00
66560;BME280;53413;49.878;8.142;2023-08-21T02:53:49;100505.09;;;19.67;100.00
66560;BME280;53413;49.878;8.142;2023-08-21T02:56:14;100504.47;;;19.64;100.00
66560;BME280;53413;49.878;8.142;2023-08-21T02:58:40;100515.41;;;19.59;100.00
66560;BME280;53413;49.878;8.142;2023-08-21T03:01:05;100505.84;;;19.57;100.00
66560;BME280;53413;49.878;8.142;2023-08-21T03:03:30;100500.09;;;19.50;100.00
66560;BME280;53413;49.878;8.142;2023-08-21T03:05:57;100501.25;;;19.46;100.00
66560;BME280;53413;49.878;8.142;2023-08-21T03:08:23;100504.34;;;19.40;100.00
66560;BME280;53413;49.878;8.142;2023-08-21T03:10:48;100506.56;;;19.33;100.00
66560;BME280;53413;49.878;8.142;2023-08-21T03:13:13;100501.56;;;19.28;100.00
66560;BME280;53413;49.878;8.142;2023-08-21T03:15:39;100509.84;;;19.23;100.00
66560;BME280;53413;49.878;8.142;2023-08-21T03:18:04;100506.50;;;19.20;100.00
66560;BME280;53413;49.878;8.142;2023-08-21T03:20:29;100507.69;;;19.16;100.00
66560;BME280;53413;49.878;8.142;2023-08-21T03:22:55;100511.50;;;19.12;100.00
66560;BME280;53413;49.878;8.142;2023-08-21T03:25:20;100503.72;;;19.08;100.00
66560;BME280;53413;49.878;8.142;2023-08-21T03:27:45;100520.84;;;19.04;100.00
66560;BME280;53413;49.878;8.142;2023-08-21T03:30:15;100511.91;;;19.05;100.00
66560;BME280;53413;49.878;8.142;2023-08-21T03:32:40;100515.28;;;19.07;100.00
66560;BME280;53413;49.878;8.142;2023-08-21T03:35:06;100519.78;;;19.07;100.00
66560;BME280;53413;49.878;8.142;2023-08-21T03:37:31;100515.72;;;19.01;100.00
66560;BME280;53413;49.878;8.142;2023-08-21T03:39:57;100509.84;;;18.96;100.00
66560;BME280;53413;49.878;8.142;2023-08-21T03:42:22;100512.69;;;18.93;100.00
66560;BME280;53413;49.878;8.142;2023-08-21T03:44:47;100514.03;;;18.86;100.00
66560;BME280;53413;49.878;8.142;2023-08-21T03:47:16;100513.50;;;18.81;100.00
66560;BME280;53413;49.878;8.142;2023-08-21T03:49:41;100517.28;;;18.76;100.00
66560;BME280;53413;49.878;8.142;2023-08-21T03:52:06;100520.25;;;18.72;100.00
66560;BME280;53413;49.878;8.142;2023-08-21T03:54:32;100522.25;;;18.68;100.00
66560;BME280;53413;49.878;8.142;2023-08-21T03:56:57;100519.78;;;18.65;100.00
66560;BME280;53413;49.878;8.142;2023-08-21T03:59:22;100519.88;;;18.64;100.00
66560;BME280;53413;49.878;8.142;2023-08-21T04:01:49;100518.47;;;18.58;100.00
66560;BME280;53413;49.878;8.142;2023-08-21T04:04:14;100513.53;;;18.52;100.00
66560;BME280;53413;49.878;8.142;2023-08-21T04:06:39;100524.34;;;18.49;100.00
66560;BME280;53413;49.878;8.142;2023-08-21T04:09:05;100524.63;;;18.44;100.00
66560;BME280;53413;49.878;8.142;2023-08-21T04:11:32;100520.50;;;18.40;100.00
66560;BME280;53413;49.878;8.142;2023-08-21T04:13:58;100513.66;;;18.36;100.00
66560;BME280;53413;49.878;8.142;2023-08-21T04:16:24;100528.00;;;18.33;100.00
66560;BME280;53413;49.878;8.142;2023-08-21T04:18:49;100516.63;;;18.31;100.00
66560;BME280;53413;49.878;8.142;2023-08-21T04:21:15;100530.81;;;18.30;100.00
66560;BME280;53413;49.878;8.142;2023-08-21T04:23:40;100528.34;;;18.27;100.00
66560;BME280;53413;49.878;8.142;2023-08-21T04:26:06;100531.00;;;18.27;100.00
66560;BME280;53413;49.878;8.142;2023-08-21T04:28:33;100531.94;;;18.26;100.00
66560;BME280;53413;49.878;8.142;2023-08-21T04:30:58;100536.31;;;18.27;100.00
66560;BME280;53413;49.878;8.142;2023-08-21T04:33:33;100539.84;;;18.27;100.00
66560;BME280;53413;49.878;8.142;2023-08-21T04:35:59;100538.78;;;18.30;100.00
66560;BME280;53413;49.878;8.142;2023-08-21T04:38:25;100534.25;;;18.32;100.00
66560;BME280;53413;49.878;8.142;2023-08-21T04:40:50;100533.19;;;18.35;100.00
66560;BME280;53413;49.878;8.142;2023-08-21T04:43:16;100539.16;;;18.38;100.00
66560;BME280;53413;49.878;8.142;2023-08-21T04:45:48;100535.38;;;18.42;100.00
66560;BME280;53413;49.878;8.142;2023-08-21T04:48:15;100541.22;;;18.48;100.00
66560;BME280;53413;49.878;8.142;2023-08-21T04:50:40;100535.72;;;18.51;100.00
66560;BME280;53413;49.878;8.142;2023-08-21T04:53:06;100531.94;;;18.55;100.00
66560;BME280;53413;49.878;8.142;2023-08-21T04:55:31;100536.06;;;18.59;100.00
66560;BME280;53413;49.878;8.142;2023-08-21T04:57:56;100536.66;;;18.64;100.00
66560;BME280;53413;49.878;8.142;2023-08-21T05:00:22;100536.34;;;18.69;100.00
66560;BME280;53413;49.878;8.142;2023-08-21T05:02:47;100536.94;;;18.74;100.00
66560;BME280;53413;49.878;8.142;2023-08-21T05:05:12;100545.25;;;18.82;100.00
66560;BME280;53413;49.878;8.142;2023-08-21T05:07:38;100537.72;;;18.89;100.00
66560;BME280;53413;49.878;8.142;2023-08-21T05:10:03;100539.06;;;18.96;100.00
66560;BME280;53413;49.878;8.142;2023-08-21T05:12:29;100541.97;;;19.06;100.00
66560;BME280;53413;49.878;8.142;2023-08-21T05:14:54;100551.16;;;19.15;100.00
66560;BME280;53413;49.878;8.142;2023-08-21T05:17:20;100542.38;;;19.27;100.00
66560;BME280;53413;49.878;8.142;2023-08-21T05:19:45;100549.09;;;19.46;100.00
66560;BME280;53413;49.878;8.142;2023-08-21T05:22:10;100538.50;;;19.72;100.00
66560;BME280;53413;49.878;8.142;2023-08-21T05:24:37;100537.59;;;19.98;100.00
66560;BME280;53413;49.878;8.142;2023-08-21T05:27:02;100526.69;;;20.27;100.00
66560;BME280;53413;49.878;8.142;2023-08-21T05:29:29;100533.47;;;20.57;100.00
66560;BME280;53413;49.878;8.142;2023-08-21T05:31:55;100539.38;;;20.87;100.00
66560;BME280;53413;49.878;8.142;2023-08-21T05:34:20;100532.56;;;21.07;100.00
66560;BME280;53413;49.878;8.142;2023-08-21T05:36:45;100534.31;;;21.19;100.00
66560;BME280;53413;49.878;8.142;2023-08-21T05:39:11;100533.84;;;21.26;100.00
66560;BME280;53413;49.878;8.142;2023-08-21T05:41:36;100534.81;;;21.25;100.00
66560;BME280;53413;49.878;8.142;2023-08-21T05:44:02;100533.25;;;21.22;100.00
66560;BME280;53413;49.878;8.142;2023-08-21T05:46:27;100536.88;;;21.21;100.00
66560;BME280;53413;49.878;8.142;2023-08-21T05:48:53;100535.78;;;21.23;100.00
66560;BME280;53413;49.878;8.142;2023-08-21T05:51:18;100540.88;;;21.27;100.00
66560;BME280;53413;49.878;8.142;2023-08-21T05:53:43;100536.81;;;21.34;100.00
66560;BME280;53413;49.878;8.142;2023-08-21T05:56:09;100547.63;;;21.44;100.00
66560;BME280;53413;49.878;8.142;2023-08-21T05:58:34;100545.09;;;21.53;100.00
66560;BME280;53413;49.878;8.142;2023-08-21T06:00:59;100547.84;;;21.65;100.00
66560;BME280;53413;49.878;8.142;2023-08-21T06:03:25;100552.22;;;21.77;100.00
66560;BME280;53413;49.878;8.142;2023-08-21T06:05:50;100552.03;;;21.92;100.00
66560;BME280;53413;49.878;8.142;2023-08-21T06:08:16;100550.69;;;22.09;100.00
66560;BME280;53413;49.878;8.142;2023-08-21T06:10:41;100554.47;;;22.29;100.00
66560;BME280;53413;49.878;8.142;2023-08-21T06:13:06;100551.91;;;22.50;100.00
66560;BME280;53413;49.878;8.142;2023-08-21T06:15:32;100548.00;;;23.75;100.00
66560;BME280;53413;49.878;8.142;2023-08-21T06:17:58;100542.44;;;28.93;100.00
66560;BME280;53413;49.878;8.142;2023-08-21T06:20:24;100550.66;;;33.64;75.67
66560;BME280;53413;49.878;8.142;2023-08-21T06:22:49;100557.84;;;36.89;59.82
66560;BME280;53413;49.878;8.142;2023-08-21T06:25:15;100557.06;;;39.18;50.75
66560;BME280;53413;49.878;8.142;2023-08-21T06:27:40;100560.72;;;41.35;45.47
66560;BME280;53413;49.878;8.142;2023-08-21T06:30:07;100545.03;;;43.18;40.17
66560;BME280;53413;49.878;8.142;2023-08-21T06:32:33;100555.09;;;44.57;36.03
66560;BME280;53413;49.878;8.142;2023-08-21T06:34:58;100550.97;;;45.58;34.50
66560;BME280;53413;49.878;8.142;2023-08-21T06:37:24;100554.56;;;46.34;33.49
66560;BME280;53413;49.878;8.142;2023-08-21T06:39:50;100550.72;;;47.39;31.60
66560;BME280;53413;49.878;8.142;2023-08-21T06:42:16;100555.09;;;47.94;30.63
66560;BME280;53413;49.878;8.142;2023-08-21T06:44:41;100551.78;;;48.74;29.31
66560;BME280;53413;49.878;8.142;2023-08-21T06:47:06;100552.31;;;49.23;28.61
66560;BME280;53413;49.878;8.142;2023-08-21T06:49:32;100548.56;;;49.88;28.25
66560;BME280;53413;49.878;8.142;2023-08-21T06:51:58;100550.81;;;50.74;27.06
66560;BME280;53413;49.878;8.142;2023-08-21T06:54:23;100543.38;;;51.15;26.00
66560;BME280;53413;49.878;8.142;2023-08-21T06:56:49;100554.75;;;51.67;26.01
66560;BME280;53413;49.878;8.142;2023-08-21T06:59:14;100548.72;;;51.34;24.48
66560;BME280;53413;49.878;8.142;2023-08-21T07:01:40;100552.91;;;52.29;24.38
66560;BME280;53413;49.878;8.142;2023-08-21T07:04:05;100541.41;;;52.57;23.72
66560;BME280;53413;49.878;8.142;2023-08-21T07:06:31;100537.88;;;52.87;23.26
66560;BME280;53413;49.878;8.142;2023-08-21T07:08:57;100546.84;;;53.28;23.49
66560;BME280;53413;49.878;8.142;2023-08-21T07:11:22;100541.97;;;53.46;23.18
66560;BME280;53413;49.878;8.142;2023-08-21T07:13:48;100540.75;;;54.15;22.98
66560;BME280;53413;49.878;8.142;2023-08-21T07:16:13;100545.38;;;54.54;22.31
66560;BME280;53413;49.878;8.142;2023-08-21T07:18:38;100540.75;;;54.70;21.96
66560;BME280;53413;49.878;8.142;2023-08-21T07:21:04;100536.81;;;54.84;21.39
66560;BME280;53413;49.878;8.142;2023-08-21T07:23:30;100538.72;;;54.92;22.01
66560;BME280;53413;49.878;8.142;2023-08-21T07:25:57;100534.47;;;54.86;22.10
66560;BME280;53413;49.878;8.142;2023-08-21T07:28:22;100540.56;;;54.54;22.41
66560;BME280;53413;49.878;8.142;2023-08-21T07:30:48;100527.84;;;54.90;21.87
66560;BME280;53413;49.878;8.142;2023-08-21T07:33:13;100532.66;;;55.02;21.19
66560;BME280;53413;49.878;8.142;2023-08-21T07:35:38;100530.94;;;55.60;20.74
66560;BME280;53413;49.878;8.142;2023-08-21T07:38:04;100523.81;;;55.25;21.05
66560;BME280;53413;49.878;8.142;2023-08-21T07:40:29;100523.78;;;55.75;20.89
66560;BME280;53413;49.878;8.142;2023-08-21T07:42:55;100523.53;;;56.21;21.06
66560;BME280;53413;49.878;8.142;2023-08-21T07:45:20;100517.19;;;56.24;21.04
66560;BME280;53413;49.878;8.142;2023-08-21T07:47:46;100523.69;;;56.40;21.07
66560;BME280;53413;49.878;8.142;2023-08-21T07:50:11;100526.09;;;56.54;20.79
66560;BME280;53413;49.878;8.142;2023-08-21T07:52:39;100527.66;;;56.23;19.92
66560;BME280;53413;49.878;8.142;2023-08-21T07:55:05;100530.75;;;56.34;20.11
66560;BME280;53413;49.878;8.142;2023-08-21T07:57:31;100521.03;;;56.76;20.33
66560;BME280;53413;49.878;8.142;2023-08-21T07:59:56;100532.31;;;57.08;19.47
66560;BME280;53413;49.878;8.142;2023-08-21T08:02:23;100531.03;;;57.54;19.58
66560;BME280;53413;49.878;8.142;2023-08-21T08:04:48;100526.94;;;57.51;19.43
66560;BME280;53413;49.878;8.142;2023-08-21T08:07:14;100529.72;;;57.67;18.95
66560;BME280;53413;49.878;8.142;2023-08-21T08:09:39;100531.00;;;57.89;19.17
66560;BME280;53413;49.878;8.142;2023-08-21T08:12:05;100530.72;;;58.14;18.85
66560;BME280;53413;49.878;8.142;2023-08-21T08:14:31;100541.31;;;58.60;18.70
66560;BME280;53413;49.878;8.142;2023-08-21T08:16:56;100534.81;;;58.79;18.51
66560;BME280;53413;49.878;8.142;2023-08-21T08:19:21;100529.81;;;58.69;18.55
66560;BME280;53413;49.878;8.142;2023-08-21T08:21:47;100525.00;;;58.96;18.62
66560;BME280;53413;49.878;8.142;2023-08-21T08:24:12;100519.63;;;59.11;18.08
66560;BME280;53413;49.878;8.142;2023-08-21T08:26:38;100526.38;;;59.29;18.16
66560;BME280;53413;49.878;8.142;2023-08-21T08:29:03;100523.38;;;59.45;18.24
66560;BME280;53413;49.878;8.142;2023-08-21T08:31:30;100523.28;;;59.38;18.22
66560;BME280;53413;49.878;8.142;2023-08-21T08:33:55;100520.53;;;58.29;18.67
66560;BME280;53413;49.878;8.142;2023-08-21T08:36:21;100525.19;;;58.61;19.00
66560;BME280;53413;49.878;8.142;2023-08-21T08:38:46;100524.69;;;59.01;18.68
66560;BME280;53413;49.878;8.142;2023-08-21T08:41:19;100517.94;;;58.83;18.21
66560;BME280;53413;49.878;8.142;2023-08-21T08:43:50;100514.16;;;58.75;18.40
66560;BME280;53413;49.878;8.142;2023-08-21T08:46:16;100519.53;;;59.07;18.49
66560;BME280;53413;49.878;8.142;2023-08-21T08:48:41;100513.91;;;59.07;18.25
66560;BME280;53413;49.878;8.142;2023-08-21T08:51:07;100506.25;;;58.84;18.42
66560;BME280;53413;49.878;8.142;2023-08-21T08:53:33;100514.13;;;58.72;18.40
66560;BME280;53413;49.878;8.142;2023-08-21T08:55:59;100513.41;;;59.01;18.05
66560;BME280;53413;49.878;8.142;2023-08-21T08:58:25;100516.00;;;58.87;18.31
66560;BME280;53413;49.878;8.142;2023-08-21T09:00:50;100510.56;;;58.55;18.44
66560;BME280;53413;49.878;8.142;2023-08-21T09:03:16;100507.69;;;58.51;18.71
66560;BME280;53413;49.878;8.142;2023-08-21T09:05:41;100501.56;;;58.26;18.63
66560;BME280;53413;49.878;8.142;2023-08-21T09:08:11;100502.75;;;58.25;18.68
66560;BME280;53413;49.878;8.142;2023-08-21T09:10:38;100508.19;;;58.57;18.77
66560;BME280;53413;49.878;8.142;2023-08-21T09:13:14;100508.56;;;58.55;18.58
66560;BME280;53413;49.878;8.142;2023-08-21T09:15:45;100495.50;;;59.17;18.26
66560;BME280;53413;49.878;8.142;2023-08-21T09:18:12;100498.09;;;59.56;18.20
66560;BME280;53413;49.878;8.142;2023-08-21T09:20:38;100502.41;;;59.77;18.59
66560;BME280;53413;49.878;8.142;2023-08-21T09:23:04;100500.34;;;59.74;18.26
66560;BME280;53413;49.878;8.142;2023-08-21T09:25:39;100496.72;;;59.73;18.09
66560;BME280;53413;49.878;8.142;2023-08-21T09:28:07;100503.13;;;60.01;18.17
66560;BME280;53413;49.878;8.142;2023-08-21T09:30:52;100498.16;;;59.90;17.52
66560;BME280;53413;49.878;8.142;2023-08-21T09:33:22;100492.66;;;59.71;17.36
66560;BME280;53413;49.878;8.142;2023-08-21T09:35:49;100497.56;;;59.20;17.94
66560;BME280;53413;49.878;8.142;2023-08-21T09:38:16;100493.38;;;59.37;17.83
66560;BME280;53413;49.878;8.142;2023-08-21T09:40:42;100489.69;;;59.60;17.89
66560;BME280;53413;49.878;8.142;2023-08-21T09:43:09;100487.91;;;58.28;18.61
66560;BME280;53413;49.878;8.142;2023-08-21T09:45:38;100481.72;;;58.03;18.91
66560;BME280;53413;49.878;8.142;2023-08-21T09:48:04;100481.94;;;57.74;19.16
66560;BME280;53413;49.878;8.142;2023-08-21T09:50:30;100484.91;;;57.62;19.59
66560;BME280;53413;49.878;8.142;2023-08-21T09:52:57;100481.81;;;57.15;20.34
66560;BME280;53413;49.878;8.142;2023-08-21T09:55:23;100476.66;;;56.41;20.70
66560;BME280;53413;49.878;8.142;2023-08-21T09:57:51;100474.50;;;55.65;20.23
66560;BME280;53413;49.878;8.142;2023-08-21T10:00:26;100470.50;;;55.66;20.42
66560;BME280;53413;49.878;8.142;2023-08-21T10:02:52;100469.47;;;55.46;20.84
66560;BME280;53413;49.878;8.142;2023-08-21T10:05:19;100462.91;;;54.92;20.90
66560;BME280;53413;49.878;8.142;2023-08-21T10:07:48;100472.44;;;53.99;22.20
66560;BME280;53413;49.878;8.142;2023-08-21T10:10:14;100464.63;;;54.05;21.19
66560;BME280;53413;49.878;8.142;2023-08-21T10:12:39;100469.97;;;53.76;21.05
66560;BME280;53413;49.878;8.142;2023-08-21T10:15:07;100473.03;;;53.32;21.87
66560;BME280;53413;49.878;8.142;2023-08-21T10:17:35;100473.53;;;51.46;22.65
66560;BME280;53413;49.878;8.142;2023-08-21T10:20:05;100473.81;;;48.07;24.84
66560;BME280;53413;49.878;8.142;2023-08-21T10:25:20;100474.19;;;42.86;31.48
66560;BME280;53413;49.878;8.142;2023-08-21T10:27:59;100468.66;;;41.03;34.92
66560;BME280;53413;49.878;8.142;2023-08-21T10:30:28;100474.22;;;39.64;37.32
66560;BME280;53413;49.878;8.142;2023-08-21T10:32:58;100478.44;;;38.64;38.11
66560;BME280;53413;49.878;8.142;2023-08-21T10:35:30;100477.34;;;37.67;38.88
66560;BME280;53413;49.878;8.142;2023-08-21T10:38:15;100470.09;;;37.10;38.23
66560;BME280;53413;49.878;8.142;2023-08-21T10:41:08;100463.00;;;36.71;38.89
66560;BME280;53413;49.878;8.142;2023-08-21T10:43:39;100468.47;;;36.32;39.93
66560;BME280;53413;49.878;8.142;2023-08-21T10:46:05;100463.34;;;36.10;40.34
66560;BME280;53413;49.878;8.142;2023-08-21T10:48:31;100460.69;;;35.90;40.19
66560;BME280;53413;49.878;8.142;2023-08-21T10:50:58;100462.91;;;35.54;39.35
66560;BME280;53413;49.878;8.142;2023-08-21T10:53:24;100460.41;;;35.06;40.49
66560;BME280;53413;49.878;8.142;2023-08-21T10:55:54;100464.56;;;34.88;42.62
66560;BME280;53413;49.878;8.142;2023-08-21T10:58:19;100462.69;;;34.82;43.66
66560;BME280;53413;49.878;8.142;2023-08-21T11:00:45;100458.69;;;34.78;42.80
66560;BME280;53413;49.878;8.142;2023-08-21T11:03:10;100449.06;;;34.68;43.55
66560;BME280;53413;49.878;8.142;2023-08-21T11:05:36;100452.19;;;34.65;41.53
66560;BME280;53413;49.878;8.142;2023-08-21T11:08:01;100452.38;;;34.50;40.21
66560;BME280;53413;49.878;8.142;2023-08-21T11:10:30;100445.19;;;34.36;41.29
66560;BME280;53413;49.878;8.142;2023-08-21T11:12:57;100439.53;;;34.37;40.93
66560;BME280;53413;49.878;8.142;2023-08-21T11:15:25;100440.56;;;34.36;41.88
66560;BME280;53413;49.878;8.142;2023-08-21T11:17:53;100451.09;;;34.46;42.47
66560;BME280;53413;49.878;8.142;2023-08-21T11:20:18;100447.78;;;34.58;44.30
66560;BME280;53413;49.878;8.142;2023-08-21T11:22:44;100446.94;;;34.57;44.50
66560;BME280;53413;49.878;8.142;2023-08-21T11:25:09;100443.16;;;34.45;44.57
66560;BME280;53413;49.878;8.142;2023-08-21T11:27:35;100453.19;;;34.51;46.45
66560;BME280;53413;49.878;8.142;2023-08-21T11:30:00;100442.72;;;34.55;46.91
66560;BME280;53413;49.878;8.142;2023-08-21T11:32:26;100446.91;;;34.44;46.97
66560;BME280;53413;49.878;8.142;2023-08-21T11:34:56;100448.78;;;34.43;47.27
66560;BME280;53413;49.878;8.142;2023-08-21T11:37:24;100448.06;;;34.14;49.11
66560;BME280;53413;49.878;8.142;2023-08-21T11:39:55;100443.38;;;33.95;49.24
66560;BME280;53413;49.878;8.142;2023-08-21T11:42:28;100442.16;;;33.97;48.32
66560;BME280;53413;49.878;8.142;2023-08-21T11:44:54;100443.72;;;33.85;50.36
66560;BME280;53413;49.878;8.142;2023-08-21T11:47:21;100432.63;;;33.44;49.52
66560;BME280;53413;49.878;8.142;2023-08-21T11:49:47;100423.25;;;33.19;51.27
66560;BME280;53413;49.878;8.142;2023-08-21T11:52:18;100434.06;;;33.12;52.72
66560;BME280;53413;49.878;8.142;2023-08-21T11:54:48;100423.84;;;33.42;50.46
66560;BME280;53413;49.878;8.142;2023-08-21T11:57:14;100428.63;;;33.75;49.20
66560;BME280;53413;49.878;8.142;2023-08-21T11:59:40;100433.75;;;33.92;49.65
66560;BME280;53413;49.878;8.142;2023-08-21T12:02:18;100427.28;;;33.93;50.36
66560;BME280;53413;49.878;8.142;2023-08-21T12:04:44;100429.59;;;33.96;47.75
66560;BME280;53413;49.878;8.142;2023-08-21T12:07:10;100430.22;;;34.05;47.86
66560;BME280;53413;49.878;8.142;2023-08-21T12:09:36;100426.94;;;34.10;46.23
66560;BME280;53413;49.878;8.142;2023-08-21T12:12:01;100424.22;;;34.10;46.39
66560;BME280;53413;49.878;8.142;2023-08-21T12:14:28;100431.06;;;33.99;45.12
66560;BME280;53413;49.878;8.142;2023-08-21T12:16:54;100433.78;;;33.99;44.94
66560;BME280;53413;49.878;8.142;2023-08-21T12:19:21;100429.16;;;33.99;44.94
66560;BME280;53413;49.878;8.142;2023-08-21T12:21:47;100424.56;;;33.93;44.73
66560;BME280;53413;49.878;8.142;2023-08-21T12:24:12;100422.91;;;33.99;44.73
66560;BME280;53413;49.878;8.142;2023-08-21T12:26:38;100417.00;;;33.88;44.25
66560;BME280;53413;49.878;8.142;2023-08-21T12:29:03;100414.22;;;33.82;44.44
66560;BME280;53413;49.878;8.142;2023-08-21T12:31:29;100405.44;;;33.80;43.98
66560;BME280;53413;49.878;8.142;2023-08-21T12:33:55;100408.63;;;33.90;43.60
66560;BME280;53413;49.878;8.142;2023-08-21T12:36:21;100399.69;;;33.96;42.94
66560;BME280;53413;49.878;8.142;2023-08-21T12:38:47;100401.16;;;33.99;42.77
66560;BME280;53413;49.878;8.142;2023-08-21T12:41:13;100400.50;;;33.97;43.15
66560;BME280;53413;49.878;8.142;2023-08-21T12:43:38;100403.78;;;33.85;43.43
66560;BME280;53413;49.878;8.142;2023-08-21T12:46:04;100398.44;;;33.99;43.22
66560;BME280;53413;49.878;8.142;2023-08-21T12:48:29;100394.28;;;34.03;41.86